createdAt,value
2019-04-12T00:01:25.967Z,3.00
2019-04-12T00:03:54.417Z,3.00
2019-04-12T00:06:22.874Z,2.90
2019-04-12T00:08:51.297Z,2.90
2019-04-12T00:11:19.718Z,2.80
2019-04-12T00:13:48.188Z,2.90
2019-04-12T00:16:16.612Z,2.80
2019-04-12T00:18:45.266Z,2.80
2019-04-12T00:21:15.485Z,2.80
2019-04-12T00:23:45.669Z,2.80
2019-04-12T00:26:15.917Z,2.90
2019-04-12T00:28:44.394Z,2.90
2019-04-12T00:31:12.837Z,2.90
2019-04-12T00:33:41.332Z,2.90
2019-04-12T00:36:09.789Z,2.80
2019-04-12T00:38:38.212Z,2.70
2019-04-12T00:41:06.641Z,2.70
2019-04-12T00:43:35.096Z,2.70
2019-04-12T00:46:05.707Z,2.60
2019-04-12T00:48:33.692Z,2.50
2019-04-12T00:51:04.237Z,2.60
2019-04-12T00:53:32.357Z,2.50
2019-04-12T00:56:00.773Z,2.50
2019-04-12T00:58:29.232Z,2.50
2019-04-12T01:01:18.862Z,2.50
2019-04-12T01:03:47.456Z,2.40
2019-04-12T01:06:18.057Z,2.40
2019-04-12T01:08:46.080Z,2.30
2019-04-12T01:11:15.998Z,2.30
2019-04-12T01:13:44.972Z,2.30
2019-04-12T01:16:13.743Z,2.20
2019-04-12T01:18:42.236Z,2.20
2019-04-12T01:21:11.000Z,2.10
2019-04-12T01:23:41.524Z,2.10
2019-04-12T01:26:09.752Z,2.00
2019-04-12T01:28:38.180Z,1.90
2019-04-12T01:31:06.695Z,2.00
2019-04-12T01:33:35.122Z,2.00
2019-04-12T01:36:03.582Z,2.00
2019-04-12T01:38:32.100Z,2.00
2019-04-12T01:41:00.533Z,1.90
2019-04-12T01:43:29.100Z,2.00
2019-04-12T01:45:57.552Z,2.00
2019-04-12T01:48:25.968Z,2.00
2019-04-12T01:50:54.402Z,1.90
2019-04-12T01:53:22.851Z,1.90
2019-04-12T01:55:51.295Z,1.80
2019-04-12T01:58:19.724Z,1.80
2019-04-12T02:00:48.169Z,1.80
2019-04-12T02:03:16.592Z,1.80
2019-04-12T02:05:45.024Z,1.70
2019-04-12T02:08:13.544Z,1.60
2019-04-12T02:10:42.916Z,1.60
2019-04-12T02:13:11.340Z,1.60
2019-04-12T02:15:40.360Z,1.50
2019-04-12T02:18:09.051Z,1.50
2019-04-12T02:20:37.572Z,1.50
2019-04-12T02:23:06.028Z,1.50
2019-04-12T02:25:34.728Z,1.40
2019-04-12T02:28:03.158Z,1.40
2019-04-12T02:30:33.248Z,1.50
2019-04-12T02:33:03.117Z,1.50
2019-04-12T02:35:36.041Z,1.30
2019-04-12T02:38:06.020Z,1.40
2019-04-12T02:40:37.356Z,1.40
2019-04-12T02:43:07.350Z,1.30
2019-04-12T02:45:41.678Z,1.40
2019-04-12T02:48:18.096Z,1.40
2019-04-12T02:50:50.398Z,1.40
2019-04-12T02:53:38.810Z,1.40
2019-04-12T02:56:25.229Z,1.40
2019-04-12T02:58:56.669Z,1.40
2019-04-12T03:01:26.432Z,1.40
2019-04-12T03:03:55.342Z,1.40
2019-04-12T03:06:24.179Z,1.40
2019-04-12T03:08:52.672Z,1.40
2019-04-12T03:11:23.487Z,1.40
2019-04-12T03:13:55.108Z,1.50
2019-04-12T03:16:24.672Z,1.50
2019-04-12T03:18:53.450Z,1.50
2019-04-12T03:21:23.494Z,1.50
2019-04-12T03:23:53.193Z,1.40
2019-04-12T03:26:22.317Z,1.40
2019-04-12T03:28:52.505Z,1.40
2019-04-12T03:31:21.174Z,1.50
2019-04-12T03:33:50.245Z,1.60
2019-04-12T03:36:19.000Z,1.60
2019-04-12T03:38:47.706Z,1.60
2019-04-12T03:41:16.431Z,1.60
2019-04-12T03:43:45.304Z,1.60
2019-04-12T03:46:14.365Z,1.60
2019-04-12T03:48:43.321Z,1.60
2019-04-12T03:51:12.288Z,1.70
2019-04-12T03:54:00.264Z,1.70
2019-04-12T03:56:29.058Z,1.80
2019-04-12T03:59:15.514Z,1.80
2019-04-12T04:01:44.293Z,1.80
2019-04-12T04:04:13.079Z,1.90
2019-04-12T04:06:42.197Z,1.90
2019-04-12T04:09:10.926Z,2.00
2019-04-12T04:11:39.889Z,2.00
2019-04-12T04:14:09.134Z,1.90
2019-04-12T04:16:40.250Z,2.00
2019-04-12T04:19:18.371Z,2.00
2019-04-12T04:21:51.542Z,2.10
2019-04-12T04:24:22.746Z,2.10
2019-04-12T04:27:09.433Z,2.10
2019-04-12T04:29:49.154Z,2.10
2019-04-12T04:32:32.072Z,2.10
2019-04-12T04:35:00.867Z,2.00
2019-04-12T04:37:30.297Z,1.90
2019-04-12T04:39:58.807Z,1.90
2019-04-12T04:42:27.405Z,1.90
2019-04-12T04:44:55.829Z,1.90
2019-04-12T04:47:24.503Z,2.00
2019-04-12T04:49:52.997Z,2.10
2019-04-12T04:52:21.650Z,2.10
2019-04-12T04:54:50.544Z,2.10
2019-04-12T04:57:19.237Z,2.10
2019-04-12T04:59:48.224Z,2.10
2019-04-12T05:02:16.976Z,2.10
2019-04-12T05:04:45.487Z,2.20
2019-04-12T05:07:14.169Z,2.20
2019-04-12T05:09:42.736Z,2.20
2019-04-12T05:12:11.525Z,2.30
2019-04-12T05:14:40.295Z,2.40
2019-04-12T05:17:09.259Z,2.40
2019-04-12T05:19:37.860Z,2.50
2019-04-12T05:22:06.825Z,2.50
2019-04-12T05:24:35.436Z,2.50
2019-04-12T05:27:04.400Z,2.60
2019-04-12T05:29:33.484Z,2.60
2019-04-12T05:32:02.208Z,2.70
2019-04-12T05:34:30.701Z,2.70
2019-04-12T05:37:09.646Z,2.60
2019-04-12T05:39:29.556Z,2.50
2019-04-12T05:41:57.976Z,2.50
2019-04-12T05:44:26.433Z,2.50
2019-04-12T05:47:09.004Z,2.50
2019-04-12T05:49:39.092Z,2.60
2019-04-12T05:52:08.191Z,2.60
2019-04-12T05:54:36.780Z,2.60
2019-04-12T05:57:05.205Z,2.50
2019-04-12T05:59:38.224Z,2.50
2019-04-12T06:02:18.136Z,2.50
2019-04-12T06:04:46.592Z,2.40
2019-04-12T06:07:15.036Z,2.50
2019-04-12T06:09:43.490Z,2.50
2019-04-12T06:12:12.198Z,2.60
2019-04-12T06:14:40.888Z,2.60
2019-04-12T06:17:09.312Z,2.60
2019-04-12T06:19:38.725Z,2.80
2019-04-12T06:22:11.637Z,2.80
2019-04-12T06:24:40.636Z,2.90
2019-04-12T06:27:19.555Z,3.10
2019-04-12T06:29:47.997Z,3.30
2019-04-12T06:32:16.572Z,3.20
2019-04-12T06:34:45.078Z,3.10
2019-04-12T06:37:13.582Z,2.90
2019-04-12T06:39:42.109Z,2.90
2019-04-12T06:42:10.661Z,3.00
2019-04-12T06:44:39.161Z,3.10
2019-04-12T06:47:07.708Z,3.20
2019-04-12T06:49:36.141Z,3.30
2019-04-12T06:52:04.921Z,3.10
2019-04-12T06:54:33.344Z,3.20
2019-04-12T06:57:03.436Z,3.30
2019-04-12T06:59:32.204Z,3.30
2019-04-12T07:02:05.724Z,3.20
2019-04-12T07:04:35.980Z,3.40
2019-04-12T07:07:04.496Z,3.40
2019-04-12T07:09:33.112Z,3.30
2019-04-12T07:12:01.546Z,3.30
2019-04-12T07:14:30.052Z,3.40
2019-04-12T07:16:58.700Z,3.70
2019-04-12T07:19:27.128Z,3.80
2019-04-12T07:21:55.648Z,3.80
2019-04-12T07:24:24.081Z,3.70
2019-04-12T07:26:52.518Z,4.00
2019-04-12T07:29:20.984Z,3.80
2019-04-12T07:31:49.454Z,3.80
2019-04-12T07:34:17.977Z,4.20
2019-04-12T07:36:46.405Z,4.20
2019-04-12T07:39:14.838Z,4.00
2019-04-12T07:41:43.279Z,4.30
2019-04-12T07:44:11.715Z,4.50
2019-04-12T07:46:40.169Z,4.70
2019-04-12T07:49:08.591Z,4.70
2019-04-12T07:51:38.660Z,5.00
2019-04-12T07:54:08.758Z,4.80
2019-04-12T07:56:37.254Z,5.10
2019-04-12T07:59:09.751Z,5.70
2019-04-12T08:01:45.837Z,5.90
2019-04-12T08:04:32.571Z,6.50
2019-04-12T08:07:05.032Z,6.90
2019-04-12T08:09:33.509Z,6.70
2019-04-12T08:12:01.936Z,6.80
2019-04-12T08:14:30.371Z,7.80
2019-04-12T08:16:58.841Z,7.00
2019-04-12T08:19:27.268Z,7.00
2019-04-12T08:21:55.752Z,6.90
2019-04-12T08:24:24.197Z,6.90
2019-04-12T08:26:52.641Z,7.10
2019-04-12T08:29:22.265Z,6.80
2019-04-12T08:31:50.842Z,6.70
2019-04-12T08:34:19.261Z,7.10
2019-04-12T08:36:47.810Z,7.40
2019-04-12T08:39:16.230Z,8.10
2019-04-12T08:41:46.754Z,9.10
2019-04-12T08:44:15.203Z,9.90
2019-04-12T08:46:43.711Z,10.60
2019-04-12T08:49:12.206Z,10.50
2019-04-12T08:51:40.715Z,9.20
2019-04-12T08:54:09.170Z,8.60
2019-04-12T08:56:37.689Z,8.80
2019-04-12T08:59:06.248Z,9.10
2019-04-12T09:01:34.760Z,9.50
2019-04-12T09:04:03.406Z,9.70
2019-04-12T09:06:31.870Z,9.20
2019-04-12T09:09:10.761Z,9.70
2019-04-12T09:11:39.320Z,10.40
2019-04-12T09:14:08.127Z,10.60
2019-04-12T09:16:36.747Z,10.90
2019-04-12T09:19:23.438Z,10.80
2019-04-12T09:21:53.641Z,11.30
2019-04-12T09:24:40.216Z,10.90
2019-04-12T09:27:08.882Z,10.80
2019-04-12T09:29:37.369Z,11.40
2019-04-12T09:32:06.005Z,11.80
2019-04-12T09:34:34.613Z,12.30
2019-04-12T09:37:03.101Z,11.50
2019-04-12T09:39:31.529Z,11.40
2019-04-12T09:42:00.118Z,12.20
2019-04-12T09:44:28.536Z,12.90
2019-04-12T09:46:57.028Z,12.50
2019-04-12T09:49:25.549Z,12.10
2019-04-12T09:51:54.056Z,12.10
2019-04-12T09:54:22.476Z,12.60
2019-04-12T09:56:50.961Z,12.80
2019-04-12T09:59:19.380Z,13.20
2019-04-12T10:01:47.821Z,13.70
2019-04-12T10:04:16.332Z,13.80
2019-04-12T10:06:46.375Z,14.00
2019-04-12T10:09:27.000Z,13.90
2019-04-12T10:11:45.155Z,14.00
2019-04-12T10:14:14.727Z,14.10
2019-04-12T10:19:11.768Z,13.60
2019-04-12T10:21:40.244Z,13.40
2019-04-12T10:24:08.665Z,13.80
2019-04-12T10:26:37.172Z,14.80
2019-04-12T10:31:34.036Z,15.50
2019-04-12T10:34:02.482Z,15.80
2019-04-12T10:36:31.076Z,15.80
2019-04-12T10:39:01.146Z,15.50
2019-04-12T10:41:29.586Z,16.00
2019-04-12T10:44:15.721Z,16.00
2019-04-12T10:46:45.652Z,14.50
2019-04-12T10:49:31.061Z,13.90
2019-04-12T10:52:01.148Z,13.40
2019-04-12T10:54:47.371Z,12.80
2019-04-12T10:57:15.860Z,12.50
2019-04-12T10:59:44.319Z,13.10
2019-04-12T11:02:12.749Z,13.50
2019-04-12T11:04:41.196Z,13.00
2019-04-12T11:07:09.669Z,13.50
2019-04-12T11:09:38.096Z,14.00
2019-04-12T11:12:06.546Z,12.90
2019-04-12T11:14:34.968Z,12.50
2019-04-12T11:17:03.409Z,12.70
2019-04-12T11:19:31.864Z,13.30
2019-04-12T11:22:00.288Z,13.50
2019-04-12T11:24:28.716Z,13.40
2019-04-12T11:26:57.181Z,12.90
2019-04-12T11:29:25.605Z,12.40
2019-04-12T11:31:54.036Z,12.20
2019-04-12T11:34:22.488Z,11.80
2019-04-12T11:36:51.017Z,11.50
2019-04-12T11:39:19.445Z,11.10
2019-04-12T11:41:47.893Z,10.90
2019-04-12T11:44:16.333Z,11.20
2019-04-12T11:46:44.839Z,11.40
2019-04-12T11:49:13.336Z,12.00
2019-04-12T11:51:41.769Z,12.00
2019-04-12T11:54:10.277Z,11.70
2019-04-12T11:56:38.760Z,11.70
2019-04-12T11:59:07.202Z,11.90
2019-04-12T12:01:39.782Z,12.40
2019-04-12T12:04:21.720Z,12.70
2019-04-12T12:07:09.980Z,12.70
2019-04-12T12:09:42.596Z,12.30
2019-04-12T12:12:31.008Z,12.10
2019-04-12T12:15:01.097Z,11.80
2019-04-12T12:17:33.997Z,11.70
2019-04-12T12:20:02.432Z,12.10
2019-04-12T12:22:30.913Z,12.30
2019-04-12T12:24:59.341Z,11.40
2019-04-12T12:27:27.876Z,10.80
2019-04-12T12:29:56.324Z,10.60
2019-04-12T12:32:24.748Z,10.30
2019-04-12T12:34:53.257Z,9.80
2019-04-12T12:37:21.765Z,9.70
2019-04-12T12:39:52.896Z,9.90
2019-04-12T12:42:20.494Z,9.90
2019-04-12T12:44:48.928Z,9.60
2019-04-12T12:47:17.398Z,9.70
2019-04-12T12:49:45.823Z,10.00
2019-04-12T12:52:14.277Z,10.00
2019-04-12T12:54:42.700Z,9.60
2019-04-12T12:57:11.262Z,9.60
2019-04-12T12:59:39.703Z,9.40
2019-04-12T13:02:08.125Z,9.20
2019-04-12T13:04:36.564Z,9.20
2019-04-12T13:07:05.168Z,9.40
2019-04-12T13:09:33.585Z,9.70
2019-04-12T13:12:02.027Z,10.00
2019-04-12T13:14:30.480Z,9.90
2019-04-12T13:16:58.951Z,9.80
2019-04-12T13:19:27.731Z,9.40
2019-04-12T13:21:56.221Z,9.40
2019-04-12T13:24:24.677Z,9.50
2019-04-12T13:26:53.092Z,9.40
2019-04-12T13:29:21.568Z,9.30
2019-04-12T13:31:51.694Z,9.30
2019-04-12T13:34:24.468Z,9.30
2019-04-12T13:36:54.556Z,9.40
2019-04-12T13:39:24.624Z,9.20
2019-04-12T13:41:53.072Z,9.10
2019-04-12T13:44:22.999Z,9.00
2019-04-12T13:46:51.795Z,9.20
2019-04-12T13:49:20.272Z,9.20
2019-04-12T13:51:48.697Z,9.00
2019-04-12T13:54:17.170Z,9.00
2019-04-12T13:56:45.690Z,9.10
2019-04-12T13:59:14.145Z,9.30
2019-04-12T14:01:42.580Z,9.40
2019-04-12T14:04:11.008Z,9.40
2019-04-12T14:06:39.447Z,9.30
2019-04-12T14:09:07.948Z,9.20
2019-04-12T14:11:36.361Z,9.20
2019-04-12T14:14:04.809Z,9.30
2019-04-12T14:16:33.228Z,9.30
2019-04-12T14:19:01.665Z,9.40
2019-04-12T14:21:30.157Z,9.30
2019-04-12T14:23:58.568Z,9.20
2019-04-12T14:26:27.022Z,9.20
2019-04-12T14:28:55.440Z,9.30
2019-04-12T14:31:28.440Z,9.20
2019-04-12T14:34:16.619Z,9.40
2019-04-12T14:36:46.774Z,9.60
2019-04-12T14:39:19.336Z,9.60
2019-04-12T14:41:47.841Z,9.50
2019-04-12T14:44:17.980Z,9.40
2019-04-12T14:46:51.058Z,9.30
2019-04-12T14:49:19.602Z,9.50
2019-04-12T14:51:48.093Z,9.40
2019-04-12T14:54:16.545Z,9.40
2019-04-12T14:56:44.965Z,9.20
2019-04-12T14:59:13.432Z,9.20
2019-04-12T15:01:41.874Z,9.20
2019-04-12T15:04:10.296Z,9.30
2019-04-12T15:06:38.733Z,9.10
2019-04-12T15:09:08.016Z,9.20
2019-04-12T15:11:36.438Z,9.20
2019-04-12T15:14:05.293Z,9.00
2019-04-12T15:16:33.735Z,8.80
2019-04-12T15:19:02.273Z,8.70
2019-04-12T15:21:30.801Z,8.70
2019-04-12T15:23:59.396Z,8.60
2019-04-12T15:26:27.844Z,8.60
2019-04-12T15:28:56.268Z,8.60
2019-04-12T15:31:24.713Z,8.70
2019-04-12T15:33:53.152Z,8.70
2019-04-12T15:36:21.828Z,8.90
2019-04-12T15:38:50.344Z,8.90
2019-04-12T15:41:18.782Z,8.80
2019-04-12T15:43:47.225Z,8.80
2019-04-12T15:46:15.729Z,8.80
2019-04-12T15:48:44.212Z,8.70
2019-04-12T15:51:12.710Z,8.60
2019-04-12T15:53:41.228Z,8.60
2019-04-12T15:56:09.678Z,8.60
2019-04-12T15:58:38.170Z,8.60
2019-04-12T16:01:12.458Z,8.60
2019-04-12T16:03:41.548Z,8.60
2019-04-12T16:06:10.627Z,8.60
2019-04-12T16:08:44.940Z,8.60
2019-04-12T16:11:22.585Z,8.50
2019-04-12T16:13:59.953Z,8.50
2019-04-12T16:16:50.965Z,8.60
2019-04-12T16:19:19.406Z,8.60
2019-04-12T16:21:47.820Z,8.40
2019-04-12T16:24:16.382Z,8.40
2019-04-12T16:26:47.897Z,8.30
2019-04-12T16:29:23.720Z,8.30
2019-04-12T16:31:53.813Z,8.30
2019-04-12T16:34:23.912Z,8.30
2019-04-12T16:36:56.602Z,8.30
2019-04-12T16:39:25.102Z,8.10
2019-04-12T16:41:53.558Z,8.00
2019-04-12T16:44:23.733Z,7.90
2019-04-12T16:46:52.151Z,7.90
2019-04-12T16:49:20.680Z,7.80
2019-04-12T16:51:49.178Z,7.80
2019-04-12T16:54:17.809Z,7.70
2019-04-12T16:56:46.382Z,7.70
2019-04-12T16:59:14.982Z,7.70
2019-04-12T17:01:43.461Z,7.70
2019-04-12T17:04:12.050Z,7.70
2019-04-12T17:06:40.629Z,7.60
2019-04-12T17:09:10.472Z,7.60
2019-04-12T17:11:39.013Z,7.60
2019-04-12T17:14:07.574Z,7.60
2019-04-12T17:16:36.125Z,7.60
2019-04-12T17:19:04.790Z,7.60
2019-04-12T17:21:33.324Z,7.60
2019-04-12T17:24:01.915Z,7.50
2019-04-12T17:26:30.499Z,7.40
2019-04-12T17:28:59.085Z,7.40
2019-04-12T17:31:27.743Z,7.30
2019-04-12T17:33:56.351Z,7.30
2019-04-12T17:36:24.943Z,7.30
2019-04-12T17:38:53.627Z,7.30
2019-04-12T17:41:22.360Z,7.20
2019-04-12T17:43:51.000Z,7.20
2019-04-12T17:46:19.813Z,7.30
2019-04-12T17:48:50.238Z,7.20
2019-04-12T17:51:23.736Z,7.10
2019-04-12T17:53:54.264Z,7.20
2019-04-12T17:56:27.320Z,7.20
2019-04-12T17:58:53.497Z,7.10
2019-04-12T18:01:29.448Z,7.10
2019-04-12T18:03:59.961Z,7.20
2019-04-12T18:06:28.851Z,7.10
2019-04-12T18:08:57.742Z,7.00
2019-04-12T18:11:34.126Z,7.00
2019-04-12T18:14:02.898Z,6.90
2019-04-12T18:16:31.886Z,6.90
2019-04-12T18:19:00.777Z,6.90
2019-04-12T18:21:29.688Z,6.80
2019-04-12T18:23:58.557Z,6.90
2019-04-12T18:26:27.449Z,6.90
2019-04-12T18:28:56.439Z,6.90
2019-04-12T18:31:25.247Z,6.80
2019-04-12T18:33:54.017Z,6.80
2019-04-12T18:36:22.904Z,6.80
2019-04-12T18:38:51.663Z,6.80
2019-04-12T18:41:20.581Z,6.80
2019-04-12T18:43:49.473Z,6.70
2019-04-12T18:46:19.033Z,6.60
2019-04-12T18:48:48.090Z,6.60
2019-04-12T18:51:16.961Z,6.60
2019-04-12T18:53:45.855Z,6.50
2019-04-12T18:56:14.757Z,6.40
2019-04-12T18:58:44.166Z,6.50
2019-04-12T19:01:13.055Z,6.30
2019-04-12T19:03:41.925Z,6.30
2019-04-12T19:06:14.759Z,6.20
2019-04-12T19:08:41.238Z,6.20
2019-04-12T19:11:10.130Z,6.20
2019-04-12T19:13:39.428Z,6.20
2019-04-12T19:16:08.441Z,6.20
2019-04-12T19:18:37.311Z,6.20
2019-04-12T19:21:06.303Z,6.10
2019-04-12T19:23:35.192Z,6.10
2019-04-12T19:26:04.310Z,6.10
2019-04-12T19:28:33.074Z,6.10
2019-04-12T19:31:03.201Z,6.10
2019-04-12T19:33:36.626Z,6.20
2019-04-12T19:36:23.399Z,6.20
2019-04-12T19:39:10.210Z,6.20
2019-04-12T19:41:40.227Z,6.20
2019-04-12T19:44:09.115Z,6.20
2019-04-12T19:46:38.007Z,6.20
2019-04-12T19:49:07.000Z,6.10
2019-04-12T19:51:35.806Z,6.10
2019-04-12T19:54:04.882Z,6.10
2019-04-12T19:56:33.671Z,6.10
2019-04-12T19:59:02.660Z,6.10
2019-04-12T20:01:31.552Z,6.20
2019-04-12T20:04:00.354Z,6.20
2019-04-12T20:06:29.131Z,6.10
2019-04-12T20:08:57.966Z,6.10
2019-04-12T20:11:26.805Z,6.10
2019-04-12T20:13:55.796Z,6.10
2019-04-12T20:16:24.700Z,6.00
2019-04-12T20:18:53.677Z,5.90
2019-04-12T20:21:22.568Z,5.90
2019-04-12T20:23:51.458Z,5.90
2019-04-12T20:26:20.206Z,5.90
2019-04-12T20:28:49.136Z,5.90
2019-04-12T20:31:18.025Z,5.90
2019-04-12T20:33:46.915Z,5.80
2019-04-12T20:36:15.809Z,5.80
2019-04-12T20:38:44.695Z,5.80
2019-04-12T20:41:13.609Z,5.70
2019-04-12T20:43:42.580Z,5.70
2019-04-12T20:46:11.487Z,5.70
2019-04-12T20:48:42.465Z,5.60
2019-04-12T20:51:10.783Z,5.60
2019-04-12T20:53:39.675Z,5.60
2019-04-12T20:56:15.536Z,5.50
2019-04-12T20:58:38.989Z,5.50
2019-04-12T21:01:07.777Z,5.50
2019-04-12T21:03:36.361Z,5.50
2019-04-12T21:06:05.149Z,5.40
2019-04-12T21:08:33.832Z,5.40
2019-04-12T21:11:02.621Z,5.30
2019-04-12T21:13:31.267Z,5.20
2019-04-12T21:15:59.805Z,5.20
2019-04-12T21:18:28.385Z,5.10
2019-04-12T21:20:57.072Z,5.00
2019-04-12T21:23:25.549Z,5.00
2019-04-12T21:25:53.983Z,4.90
2019-04-12T21:28:22.449Z,4.80
2019-04-12T21:30:50.916Z,4.80
2019-04-12T21:33:28.626Z,4.80
2019-04-12T21:35:49.525Z,4.80
2019-04-12T21:38:17.949Z,4.80
2019-04-12T21:40:46.373Z,4.80
2019-04-12T21:43:14.826Z,4.70
2019-04-12T21:45:43.260Z,4.70
2019-04-12T21:48:11.688Z,4.70
2019-04-12T21:50:40.141Z,4.70
2019-04-12T21:53:08.568Z,4.80
2019-04-12T21:55:37.000Z,4.80
2019-04-12T21:58:05.445Z,4.80
2019-04-12T22:00:48.952Z,4.80
2019-04-12T22:03:18.132Z,4.70
2019-04-12T22:05:47.084Z,4.70
2019-04-12T22:08:15.546Z,4.70
2019-04-12T22:10:44.000Z,4.70
2019-04-12T22:13:12.420Z,4.70
2019-04-12T22:15:40.852Z,4.80
2019-04-12T22:18:09.368Z,4.90
2019-04-12T22:20:37.794Z,4.90
2019-04-12T22:23:06.308Z,4.90
2019-04-12T22:25:34.824Z,4.90
2019-04-12T22:28:03.321Z,4.90
2019-04-12T22:30:31.767Z,5.00
2019-04-12T22:33:00.287Z,4.90
2019-04-12T22:35:28.774Z,4.90
2019-04-12T22:37:57.320Z,4.90
2019-04-12T22:40:25.826Z,4.90
2019-04-12T22:42:54.245Z,4.90
2019-04-12T22:45:22.669Z,4.90
2019-04-12T22:47:51.144Z,4.90
2019-04-12T22:50:19.610Z,5.00
2019-04-12T22:52:48.177Z,5.00
2019-04-12T22:55:18.277Z,5.00
2019-04-12T22:57:46.700Z,5.00
2019-04-12T23:00:15.296Z,4.90
2019-04-12T23:02:43.759Z,4.90
2019-04-12T23:05:12.188Z,5.00
2019-04-12T23:07:40.597Z,5.00
2019-04-12T23:10:09.121Z,5.00
2019-04-12T23:12:37.549Z,4.90
2019-04-12T23:15:08.076Z,4.90
2019-04-12T23:17:36.534Z,4.90
2019-04-12T23:20:06.892Z,4.90
2019-04-12T23:22:35.315Z,4.80
2019-04-12T23:25:05.709Z,4.70
2019-04-12T23:27:34.132Z,4.60
2019-04-12T23:30:03.632Z,4.50
2019-04-12T23:32:32.113Z,4.50
2019-04-12T23:35:02.172Z,4.60
2019-04-12T23:37:40.136Z,4.70
2019-04-12T23:40:09.704Z,4.70
2019-04-12T23:42:38.199Z,4.70
2019-04-12T23:45:08.662Z,4.70
2019-04-12T23:47:37.085Z,4.70
2019-04-12T23:50:07.511Z,4.70
2019-04-12T23:52:36.037Z,4.70
2019-04-12T23:55:05.000Z,4.70
2019-04-12T23:57:33.425Z,4.70
